createdAt,value
2023-11-22T00:00:24.071Z,76.26
2023-11-22T00:03:10.058Z,75.92
2023-11-22T00:05:55.755Z,76.31
2023-11-22T00:08:41.383Z,75.87
2023-11-22T00:11:26.832Z,75.94
2023-11-22T00:14:12.372Z,76.04
2023-11-22T00:16:58.450Z,76.16
2023-11-22T00:19:45.618Z,75.57
2023-11-22T00:22:33.338Z,75.67
2023-11-22T00:25:20.620Z,75.84
2023-11-22T00:28:07.878Z,76.15
2023-11-22T00:30:54.866Z,76.00
2023-11-22T00:33:40.588Z,75.37
2023-11-22T00:36:25.986Z,75.52
2023-11-22T00:39:14.190Z,75.60
2023-11-22T00:42:00.119Z,75.28
2023-11-22T00:44:46.092Z,75.26
2023-11-22T00:47:31.620Z,75.10
2023-11-22T00:50:21.177Z,75.25
2023-11-22T00:53:07.230Z,75.03
2023-11-22T00:55:52.624Z,75.47
2023-11-22T00:58:38.207Z,74.99
2023-11-22T01:01:23.712Z,75.10
2023-11-22T01:04:09.461Z,75.19
2023-11-22T01:06:55.221Z,74.85
2023-11-22T01:09:40.857Z,74.99
2023-11-22T01:12:26.359Z,75.16
2023-11-22T01:15:11.975Z,74.54
2023-11-22T01:17:57.624Z,74.89
2023-11-22T01:20:42.984Z,74.70
2023-11-22T01:23:29.201Z,75.03
2023-11-22T01:26:14.959Z,75.15
2023-11-22T01:29:01.386Z,74.98
2023-11-22T01:31:47.014Z,74.80
2023-11-22T01:34:32.643Z,74.94
2023-11-22T01:37:18.819Z,74.98
2023-11-22T01:40:05.545Z,74.55
2023-11-22T01:42:51.829Z,75.01
2023-11-22T01:45:37.478Z,74.41
2023-11-22T01:48:26.215Z,74.48
2023-11-22T01:51:11.907Z,75.17
2023-11-22T01:53:59.377Z,74.45
2023-11-22T01:56:45.698Z,74.61
2023-11-22T01:59:32.853Z,74.68
2023-11-22T02:02:18.678Z,74.66
2023-11-22T02:05:04.889Z,74.80
2023-11-22T02:07:51.084Z,74.67
2023-11-22T02:10:37.910Z,74.73
2023-11-22T02:13:23.527Z,74.88
2023-11-22T02:16:09.296Z,74.98
2023-11-22T02:18:54.996Z,74.44
2023-11-22T02:21:40.473Z,74.77
2023-11-22T02:24:26.100Z,74.92
2023-11-22T02:27:12.384Z,75.02
2023-11-22T02:30:17.434Z,74.49
2023-11-22T02:33:02.940Z,74.44
2023-11-22T02:35:48.441Z,74.44
2023-11-22T02:38:34.169Z,74.53
2023-11-22T02:41:19.953Z,74.54
2023-11-22T02:44:08.132Z,74.68
2023-11-22T02:46:54.181Z,74.72
2023-11-22T02:49:40.572Z,74.69
2023-11-22T02:52:26.652Z,74.56
2023-11-22T02:55:12.138Z,74.52
2023-11-22T02:57:57.759Z,74.49
2023-11-22T03:00:44.017Z,74.07
2023-11-22T03:03:29.955Z,74.58
2023-11-22T03:06:16.021Z,74.34
2023-11-22T03:09:01.450Z,74.56
2023-11-22T03:11:47.258Z,74.72
2023-11-22T03:14:32.901Z,74.34
2023-11-22T03:17:19.062Z,74.75
2023-11-22T03:20:07.158Z,74.21
2023-11-22T03:22:52.668Z,73.98
2023-11-22T03:25:38.003Z,73.94
2023-11-22T03:28:23.753Z,74.30
2023-11-22T03:31:09.571Z,74.28
2023-11-22T03:33:56.288Z,74.37
2023-11-22T03:36:42.342Z,74.13
2023-11-22T03:39:28.070Z,74.18
2023-11-22T03:42:13.984Z,73.99
2023-11-22T03:45:00.797Z,74.15
2023-11-22T03:47:46.813Z,74.22
2023-11-22T03:50:32.343Z,74.11
2023-11-22T03:53:17.757Z,74.47
2023-11-22T03:56:03.289Z,73.93
2023-11-22T03:58:49.994Z,74.33
2023-11-22T04:01:35.549Z,73.52
2023-11-22T04:04:20.976Z,73.59
2023-11-22T04:07:07.704Z,74.01
2023-11-22T04:09:53.528Z,73.38
2023-11-22T04:12:39.604Z,73.37
2023-11-22T04:15:25.275Z,73.77
2023-11-22T04:18:11.211Z,73.59
2023-11-22T04:20:59.495Z,73.48
2023-11-22T04:23:45.950Z,73.63
2023-11-22T04:26:31.643Z,73.61
2023-11-22T04:29:18.054Z,74.19
2023-11-22T04:32:03.857Z,74.25
2023-11-22T04:34:49.765Z,73.98
2023-11-22T04:37:35.382Z,73.82
2023-11-22T04:40:20.855Z,74.46
2023-11-22T04:43:06.506Z,74.16
2023-11-22T04:45:52.174Z,74.46
2023-11-22T04:48:41.744Z,74.00
2023-11-22T04:51:30.500Z,74.20
2023-11-22T04:54:15.790Z,74.11
2023-11-22T04:57:01.213Z,74.42
2023-11-22T04:59:47.079Z,74.36
2023-11-22T05:02:32.539Z,74.33
2023-11-22T05:05:18.189Z,74.28
2023-11-22T05:08:04.045Z,74.21
2023-11-22T05:10:49.617Z,73.95
2023-11-22T05:13:35.198Z,74.44
2023-11-22T05:16:20.615Z,74.30
2023-11-22T05:19:06.926Z,74.62
2023-11-22T05:21:52.635Z,74.16
2023-11-22T05:24:42.039Z,74.17
2023-11-22T05:27:27.502Z,73.96
2023-11-22T05:30:13.179Z,74.20
2023-11-22T05:32:58.903Z,73.94
2023-11-22T05:35:44.420Z,73.73
2023-11-22T05:38:29.906Z,73.86
2023-11-22T05:41:15.832Z,73.81
2023-11-22T05:44:01.705Z,73.59
2023-11-22T05:46:47.192Z,73.88
2023-11-22T05:49:32.880Z,73.77
2023-11-22T05:52:18.338Z,73.61
2023-11-22T05:55:05.172Z,73.98
2023-11-22T05:57:51.296Z,73.75
2023-11-22T06:00:39.488Z,73.70
2023-11-22T06:03:24.953Z,73.62
2023-11-22T06:06:10.868Z,73.64
2023-11-22T06:08:56.394Z,73.74
2023-11-22T06:11:42.095Z,73.63
2023-11-22T06:14:27.904Z,73.93
2023-11-22T06:17:14.310Z,73.94
2023-11-22T06:19:59.757Z,73.77
2023-11-22T06:22:45.889Z,73.50
2023-11-22T06:25:31.609Z,73.54
2023-11-22T06:28:17.078Z,74.11
2023-11-22T06:31:02.636Z,74.20
2023-11-22T06:33:48.172Z,74.05
2023-11-22T06:36:33.952Z,74.02
2023-11-22T06:39:19.722Z,74.05
2023-11-22T06:42:05.754Z,73.80
2023-11-22T06:44:51.838Z,73.89
2023-11-22T06:47:38.790Z,74.18
2023-11-22T06:50:25.658Z,73.60
2023-11-22T06:53:11.128Z,74.00
2023-11-22T06:55:56.384Z,74.22
2023-11-22T06:58:41.773Z,73.70
2023-11-22T07:01:27.410Z,73.72
2023-11-22T07:04:12.930Z,73.86
2023-11-22T07:06:58.422Z,73.67
2023-11-22T07:09:44.975Z,74.14
2023-11-22T07:12:30.263Z,73.77
2023-11-22T07:15:15.830Z,73.75
2023-11-22T07:18:01.436Z,73.39
2023-11-22T07:20:49.557Z,73.95
2023-11-22T07:23:35.412Z,73.75
2023-11-22T07:26:21.241Z,74.18
2023-11-22T07:29:07.439Z,73.82
2023-11-22T07:31:53.159Z,73.80
2023-11-22T07:34:42.995Z,73.76
2023-11-22T07:37:28.648Z,73.86
2023-11-22T07:40:15.100Z,74.13
2023-11-22T07:43:00.486Z,73.87
2023-11-22T07:45:46.104Z,73.89
2023-11-22T07:48:32.092Z,73.88
2023-11-22T07:51:18.191Z,73.98
2023-11-22T07:54:03.628Z,74.07
2023-11-22T07:56:53.590Z,73.88
2023-11-22T07:59:39.379Z,74.04
2023-11-22T08:02:25.133Z,73.77
2023-11-22T08:05:10.825Z,73.92
2023-11-22T08:07:56.531Z,73.72
2023-11-22T08:10:43.725Z,73.67
2023-11-22T08:13:31.599Z,73.82
2023-11-22T08:16:17.477Z,73.62
2023-11-22T08:19:03.353Z,74.08
2023-11-22T08:21:49.517Z,74.00
2023-11-22T08:24:35.251Z,74.04
2023-11-22T08:27:21.068Z,74.02
2023-11-22T08:30:07.464Z,74.35
2023-11-22T08:32:55.877Z,74.61
2023-11-22T08:35:44.076Z,74.35
2023-11-22T08:38:29.954Z,74.38
2023-11-22T08:41:15.717Z,74.60
2023-11-22T08:44:01.380Z,74.05
2023-11-22T08:46:48.446Z,74.45
2023-11-22T08:49:35.458Z,74.72
2023-11-22T08:52:21.175Z,74.26
2023-11-22T08:55:08.624Z,74.58
2023-11-22T08:57:54.266Z,74.42
2023-11-22T09:00:39.863Z,74.23
2023-11-22T09:03:25.603Z,74.20
2023-11-22T09:06:11.421Z,74.66
2023-11-22T09:08:59.740Z,74.07
2023-11-22T09:11:45.182Z,73.90
2023-11-22T09:14:30.713Z,74.47
2023-11-22T09:17:16.199Z,74.12
2023-11-22T09:20:03.452Z,74.28
2023-11-22T09:22:55.738Z,74.24
2023-11-22T09:25:41.365Z,74.55
2023-11-22T09:28:26.700Z,74.00
2023-11-22T09:31:14.624Z,74.27
2023-11-22T09:34:00.477Z,74.10
2023-11-22T09:36:45.862Z,74.18
2023-11-22T09:39:31.517Z,74.19
2023-11-22T09:42:17.105Z,74.37
2023-11-22T09:45:03.692Z,74.30
2023-11-22T09:47:49.302Z,73.91
2023-11-22T09:50:49.003Z,74.08
2023-11-22T09:53:35.579Z,74.18
2023-11-22T09:56:21.857Z,74.52
2023-11-22T09:59:08.511Z,74.23
2023-11-22T10:01:55.425Z,74.39
2023-11-22T10:04:41.984Z,74.55
2023-11-22T10:07:28.007Z,74.11
2023-11-22T10:10:16.124Z,73.94
2023-11-22T10:13:02.501Z,74.61
2023-11-22T10:15:54.804Z,74.10
2023-11-22T10:18:42.585Z,74.56
2023-11-22T10:21:31.833Z,74.25
2023-11-22T10:24:22.496Z,74.27
2023-11-22T10:27:10.620Z,74.22
2023-11-22T10:29:55.944Z,74.17
2023-11-22T10:32:42.482Z,74.28
2023-11-22T10:35:27.817Z,74.34
2023-11-22T10:38:17.618Z,74.77
2023-11-22T10:41:07.007Z,74.63
2023-11-22T10:43:57.004Z,74.63
2023-11-22T10:46:43.031Z,74.48
2023-11-22T10:49:28.994Z,74.77
2023-11-22T10:52:15.730Z,74.91
2023-11-22T10:55:04.984Z,74.23
2023-11-22T10:57:54.751Z,74.70
2023-11-22T11:00:43.075Z,75.21
2023-11-22T11:03:39.969Z,74.75
2023-11-22T11:06:34.290Z,75.02
2023-11-22T11:09:22.726Z,74.75
2023-11-22T11:12:09.424Z,75.07
2023-11-22T11:14:55.278Z,74.81
2023-11-22T11:17:41.253Z,75.30
2023-11-22T11:20:26.781Z,75.04
2023-11-22T11:23:13.823Z,75.09
2023-11-22T11:26:16.890Z,75.25
2023-11-22T11:29:05.144Z,74.96
2023-11-22T11:31:51.278Z,74.92
2023-11-22T11:34:49.509Z,74.91
2023-11-22T11:37:35.169Z,75.10
2023-11-22T11:40:47.753Z,74.94
2023-11-22T11:43:46.828Z,75.24
2023-11-22T11:46:34.295Z,75.22
2023-11-22T11:49:20.031Z,75.00
2023-11-22T11:52:05.766Z,75.32
2023-11-22T11:54:52.198Z,74.87
2023-11-22T11:57:38.356Z,74.96
2023-11-22T12:00:29.599Z,74.84
2023-11-22T12:03:21.283Z,74.86
2023-11-22T12:06:07.832Z,74.98
2023-11-22T12:08:54.211Z,75.26
2023-11-22T12:11:40.509Z,74.71
2023-11-22T12:14:26.817Z,75.12
2023-11-22T12:17:12.538Z,74.82
2023-11-22T12:20:16.493Z,74.84
2023-11-22T12:23:02.913Z,74.93
2023-11-22T12:25:50.445Z,74.42
2023-11-22T12:28:35.678Z,74.48
2023-11-22T12:31:22.009Z,75.10
2023-11-22T12:34:08.988Z,74.86
2023-11-22T12:36:55.001Z,74.76
2023-11-22T12:39:42.989Z,74.93
2023-11-22T12:42:32.236Z,74.72
2023-11-22T12:45:21.501Z,74.54
2023-11-22T12:48:27.201Z,75.21
2023-11-22T12:51:18.650Z,74.94
2023-11-22T12:54:04.831Z,74.66
2023-11-22T12:56:52.101Z,74.50
2023-11-22T12:59:37.569Z,74.80
2023-11-22T13:02:23.230Z,74.27
2023-11-22T13:05:14.494Z,74.77
2023-11-22T13:08:02.282Z,74.56
2023-11-22T13:10:55.863Z,75.03
2023-11-22T13:13:42.630Z,74.51
2023-11-22T13:16:28.167Z,74.42
2023-11-22T13:19:13.677Z,74.69
2023-11-22T13:21:59.222Z,74.73
2023-11-22T13:24:44.733Z,74.57
2023-11-22T13:27:31.542Z,74.72
2023-11-22T13:30:20.841Z,74.33
2023-11-22T13:33:07.001Z,74.64
2023-11-22T13:35:54.090Z,74.71
2023-11-22T13:38:40.707Z,74.66
2023-11-22T13:41:27.038Z,74.46
2023-11-22T13:44:12.665Z,74.50
2023-11-22T13:46:58.970Z,74.57
2023-11-22T13:49:44.840Z,74.30
2023-11-22T13:52:30.710Z,74.72
2023-11-22T13:55:20.652Z,74.60
2023-11-22T13:58:06.725Z,74.54
2023-11-22T14:00:55.498Z,74.51
2023-11-22T14:03:41.414Z,74.41
2023-11-22T14:06:27.330Z,74.48
2023-11-22T14:09:15.721Z,74.73
2023-11-22T14:12:00.994Z,74.40
2023-11-22T14:14:46.619Z,74.18
2023-11-22T14:17:32.237Z,74.78
2023-11-22T14:20:18.065Z,74.33
2023-11-22T14:23:03.622Z,74.01
2023-11-22T14:25:49.222Z,73.99
2023-11-22T14:28:34.994Z,74.36
2023-11-22T14:31:20.603Z,74.17
2023-11-22T14:34:06.695Z,74.30
2023-11-22T14:36:52.139Z,74.18
2023-11-22T14:39:38.249Z,74.01
2023-11-22T14:42:25.965Z,74.42
2023-11-22T14:45:15.425Z,74.11
2023-11-22T14:48:03.130Z,74.33
2023-11-22T14:50:49.273Z,74.20
2023-11-22T14:53:34.881Z,74.43
2023-11-22T14:56:21.601Z,74.36
2023-11-22T14:59:08.088Z,74.78
2023-11-22T15:01:55.172Z,74.57
2023-11-22T15:04:40.813Z,74.30
2023-11-22T15:07:26.790Z,74.31
2023-11-22T15:10:13.085Z,74.71
2023-11-22T15:12:59.468Z,74.44
2023-11-22T15:15:45.377Z,74.53
2023-11-22T15:18:32.048Z,74.82
2023-11-22T15:21:18.823Z,74.41
2023-11-22T15:24:04.888Z,74.39
2023-11-22T15:26:50.791Z,74.43
2023-11-22T15:29:36.863Z,74.86
2023-11-22T15:32:22.411Z,74.81
2023-11-22T15:35:09.482Z,74.64
2023-11-22T15:37:56.160Z,75.01
2023-11-22T15:40:41.551Z,74.83
2023-11-22T15:43:28.800Z,74.74
2023-11-22T15:46:16.043Z,74.43
2023-11-22T15:49:01.976Z,74.94
2023-11-22T15:51:47.678Z,74.60
2023-11-22T15:54:33.492Z,74.90
2023-11-22T15:57:19.041Z,74.73
2023-11-22T16:00:11.403Z,75.06
2023-11-22T16:02:59.971Z,75.04
2023-11-22T16:05:49.886Z,75.20
2023-11-22T16:08:35.894Z,74.78
2023-11-22T16:11:21.264Z,74.89
2023-11-22T16:14:06.792Z,75.01
2023-11-22T16:17:15.639Z,74.82
2023-11-22T16:20:04.761Z,75.30
2023-11-22T16:22:50.987Z,75.20
2023-11-22T16:25:38.734Z,75.21
2023-11-22T16:28:23.983Z,74.93
2023-11-22T16:31:11.538Z,75.04
2023-11-22T16:33:59.108Z,75.00
2023-11-22T16:36:44.470Z,75.17
2023-11-22T16:39:31.656Z,74.96
2023-11-22T16:42:19.540Z,75.24
2023-11-22T16:45:07.516Z,75.45
2023-11-22T16:47:56.117Z,75.80
2023-11-22T16:50:42.124Z,75.55
2023-11-22T16:53:28.365Z,75.62
2023-11-22T16:56:13.957Z,75.55
2023-11-22T16:58:59.590Z,75.75
2023-11-22T17:01:45.037Z,75.55
2023-11-22T17:04:30.609Z,75.64
2023-11-22T17:07:16.176Z,75.60
2023-11-22T17:10:01.841Z,75.45
2023-11-22T17:12:47.415Z,76.13
2023-11-22T17:15:34.000Z,76.04
2023-11-22T17:18:20.110Z,75.43
2023-11-22T17:21:06.607Z,75.71
2023-11-22T17:23:51.952Z,75.57
2023-11-22T17:26:39.945Z,75.33
2023-11-22T17:29:26.348Z,75.73
2023-11-22T17:32:12.827Z,75.94
2023-11-22T17:34:58.442Z,75.66
2023-11-22T17:37:43.951Z,75.29
2023-11-22T17:40:31.171Z,76.00
2023-11-22T17:43:17.173Z,75.76
2023-11-22T17:46:02.902Z,76.07
2023-11-22T17:48:48.899Z,76.22
2023-11-22T17:51:34.304Z,76.20
2023-11-22T17:54:19.673Z,76.12
2023-11-22T17:57:06.108Z,75.80
2023-11-22T17:59:51.470Z,75.86
2023-11-22T18:02:39.693Z,75.49
2023-11-22T18:05:26.424Z,75.85
2023-11-22T18:08:14.431Z,76.15
2023-11-22T18:10:59.849Z,75.83
2023-11-22T18:13:45.892Z,75.89
2023-11-22T18:16:31.365Z,75.92
2023-11-22T18:19:17.077Z,75.87
2023-11-22T18:22:03.437Z,76.12
2023-11-22T18:24:49.049Z,75.86
2023-11-22T18:27:35.638Z,75.84
2023-11-22T18:30:21.312Z,75.77
2023-11-22T18:33:12.864Z,76.08
2023-11-22T18:35:59.633Z,75.58
2023-11-22T18:38:48.181Z,75.39
2023-11-22T18:41:38.174Z,75.65
2023-11-22T18:44:23.593Z,75.67
2023-11-22T18:47:12.352Z,75.71
2023-11-22T18:49:57.923Z,75.32
2023-11-22T18:52:43.596Z,75.65
2023-11-22T18:55:29.759Z,75.60
2023-11-22T18:58:15.402Z,75.96
2023-11-22T19:01:00.955Z,75.80
2023-11-22T19:03:46.535Z,76.05
2023-11-22T19:06:32.124Z,75.60
2023-11-22T19:09:17.481Z,75.58
2023-11-22T19:12:03.189Z,75.35
2023-11-22T19:14:48.773Z,75.77
2023-11-22T19:17:34.507Z,75.64
2023-11-22T19:20:19.919Z,75.68
2023-11-22T19:23:06.688Z,75.80
2023-11-22T19:25:56.409Z,75.90
2023-11-22T19:28:42.103Z,75.58
2023-11-22T19:31:27.840Z,75.30
2023-11-22T19:34:15.947Z,75.42
2023-11-22T19:37:01.293Z,75.48
2023-11-22T19:39:46.765Z,75.78
2023-11-22T19:42:35.759Z,75.66
2023-11-22T19:45:21.773Z,75.48
2023-11-22T19:48:07.656Z,75.59
2023-11-22T19:50:53.692Z,74.93
2023-11-22T19:53:39.716Z,75.48
2023-11-22T19:56:28.240Z,75.13
2023-11-22T19:59:14.159Z,75.03
2023-11-22T20:01:59.669Z,74.99
2023-11-22T20:04:44.990Z,74.91
2023-11-22T20:07:30.432Z,75.38
2023-11-22T20:10:16.010Z,74.83
2023-11-22T20:13:01.996Z,75.29
2023-11-22T20:15:47.456Z,75.28
2023-11-22T20:18:33.396Z,75.35
2023-11-22T20:21:19.324Z,75.35
2023-11-22T20:24:05.196Z,75.14
2023-11-22T20:26:50.955Z,75.01
2023-11-22T20:29:39.806Z,75.20
2023-11-22T20:32:26.396Z,74.86
2023-11-22T20:35:11.972Z,74.76
2023-11-22T20:37:57.689Z,74.32
2023-11-22T20:40:43.454Z,74.55
2023-11-22T20:43:29.365Z,74.81
2023-11-22T20:46:15.012Z,74.92
2023-11-22T20:49:02.628Z,74.68
2023-11-22T20:51:48.291Z,74.28
2023-11-22T20:54:34.682Z,74.44
2023-11-22T20:57:20.292Z,74.85
2023-11-22T21:00:12.737Z,74.46
2023-11-22T21:02:58.774Z,74.50
2023-11-22T21:05:45.219Z,74.77
2023-11-22T21:08:30.881Z,74.62
2023-11-22T21:11:17.520Z,74.64
2023-11-22T21:14:03.219Z,74.34
2023-11-22T21:16:48.957Z,74.85
2023-11-22T21:19:34.699Z,74.11
2023-11-22T21:22:20.302Z,74.54
2023-11-22T21:25:10.344Z,74.41
2023-11-22T21:27:55.998Z,74.46
2023-11-22T21:30:41.770Z,74.61
2023-11-22T21:33:27.536Z,74.39
2023-11-22T21:36:13.925Z,74.17
2023-11-22T21:38:59.934Z,74.02
2023-11-22T21:41:53.195Z,74.22
2023-11-22T21:44:39.003Z,74.29
2023-11-22T21:47:24.651Z,74.32
2023-11-22T21:50:14.071Z,73.87
2023-11-22T21:53:00.239Z,73.81
2023-11-22T21:55:45.640Z,73.78
2023-11-22T21:58:34.534Z,73.63
2023-11-22T22:01:20.108Z,73.63
2023-11-22T22:04:08.041Z,73.48
2023-11-22T22:06:54.031Z,73.24
2023-11-22T22:09:40.949Z,73.41
2023-11-22T22:12:26.685Z,73.39
2023-11-22T22:15:12.278Z,73.12
2023-11-22T22:17:58.166Z,72.99
2023-11-22T22:20:51.444Z,72.93
2023-11-22T22:23:41.516Z,73.21
2023-11-22T22:26:26.977Z,73.16
2023-11-22T22:29:12.732Z,73.16
2023-11-22T22:31:58.190Z,72.97
2023-11-22T22:34:43.864Z,72.95
2023-11-22T22:37:29.818Z,72.99
2023-11-22T22:40:15.398Z,72.48
2023-11-22T22:43:01.320Z,72.78
2023-11-22T22:45:46.702Z,72.91
2023-11-22T22:48:32.843Z,72.84
2023-11-22T22:51:19.180Z,72.65
2023-11-22T22:54:05.461Z,72.43
2023-11-22T22:56:53.815Z,72.30
2023-11-22T22:59:40.038Z,72.59
2023-11-22T23:02:25.474Z,72.58
2023-11-22T23:05:18.531Z,72.78
2023-11-22T23:08:10.486Z,73.07
2023-11-22T23:10:55.829Z,72.41
2023-11-22T23:13:41.493Z,72.02
2023-11-22T23:16:27.199Z,72.51
2023-11-22T23:19:14.132Z,72.60
2023-11-22T23:22:03.371Z,72.49
2023-11-22T23:24:49.021Z,72.22
2023-11-22T23:27:36.785Z,72.16
2023-11-22T23:30:22.642Z,72.32
2023-11-22T23:33:08.875Z,72.57
2023-11-22T23:35:54.575Z,72.55
2023-11-22T23:38:40.247Z,72.71
2023-11-22T23:41:26.610Z,72.50
2023-11-22T23:44:12.405Z,72.28
2023-11-22T23:46:58.120Z,71.83
2023-11-22T23:49:44.422Z,71.82
2023-11-22T23:52:30.389Z,72.02
2023-11-22T23:55:16.235Z,72.21
2023-11-22T23:58:01.825Z,71.78
